Time;durP1;ratioP1;P1;durP2;ratioP2;P2;SDS_P1;SDS_P2;PMS_P1;PMS_P2;Temp;Humidity;BMP_temperature;BMP_pressure;BME280_temperature;BME280_humidity;BME280_pressure;Samples;Min_cycle;Max_cycle;Signal;HPM_P1;HPM_P2
2021/04/16 00:00:28;;;;;;;49.40;33.00;;;77.50;2227.20;;;;;;5052587;28;20032;-72
2021/04/16 00:02:55;;;;;;;52.45;33.35;;;77.50;2227.20;;;;;;5052602;28;20120;-71
2021/04/16 00:05:20;;;;;;;50.38;31.35;;;77.50;2227.20;;;;;;5052853;28;20017;-71
2021/04/16 00:07:46;;;;;;;39.28;28.25;;;77.50;2227.20;;;;;;5052534;28;20384;-71
2021/04/16 00:10:16;;;;;;;43.38;29.65;;;77.50;2227.20;;;;;;5052797;28;20380;-71
2021/04/16 00:12:42;;;;;;;47.17;31.48;;;77.50;2227.20;;;;;;5051156;28;20665;-71
2021/04/16 00:15:15;;;;;;;44.33;29.70;;;77.60;2227.20;;;;;;5051491;28;20040;-71
2021/04/16 00:17:41;;;;;;;45.75;29.92;;;77.60;2227.20;;;;;;5052677;28;20024;-71
2021/04/16 00:20:11;;;;;;;46.50;30.25;;;77.60;2227.20;;;;;;5052236;28;20024;-71
2021/04/16 00:22:36;;;;;;;50.60;34.20;;;77.60;2227.20;;;;;;5053174;28;20337;-71
2021/04/16 00:25:05;;;;;;;46.85;32.75;;;77.60;2227.20;;;;;;5038871;28;20021;-71
2021/04/16 00:27:30;;;;;;;51.92;32.67;;;77.60;2227.20;;;;;;5052435;28;20035;-71
2021/04/16 00:29:56;;;;;;;45.55;32.08;;;77.60;2227.20;;;;;;5052094;28;20017;-71
2021/04/16 00:32:22;;;;;;;55.17;32.70;;;77.60;2227.20;;;;;;5051109;28;20029;-71
2021/04/16 00:34:47;;;;;;;49.47;32.42;;;77.60;2227.20;;;;;;5049523;28;20060;-71
2021/04/16 00:37:13;;;;;;;52.92;34.10;;;77.60;2227.20;;;;;;5047826;28;20104;-71
2021/04/16 00:39:40;;;;;;;50.92;31.52;;;77.50;2227.20;;;;;;5048911;28;20033;-70
2021/04/16 00:42:06;;;;;;;55.22;30.42;;;77.50;2227.20;;;;;;5051489;28;20033;-71
2021/04/16 00:44:32;;;;;;;47.97;32.15;;;77.50;2227.20;;;;;;5052033;28;20033;-70
2021/04/16 00:47:03;;;;;;;55.30;33.92;;;77.50;2227.20;;;;;;5050612;28;20458;-70
2021/04/16 00:49:44;;;;;;;44.85;30.77;;;77.50;2227.20;;;;;;5051841;28;20025;-71
2021/04/16 00:52:11;;;;;;;50.50;30.15;;;77.50;2227.20;;;;;;5051717;28;20028;-70
2021/04/16 00:54:41;;;;;;;48.58;31.95;;;77.60;2227.20;;;;;;5051538;28;20048;-71
2021/04/16 00:57:11;;;;;;;50.30;33.15;;;77.60;2227.20;;;;;;5051924;28;20036;-70
2021/04/16 00:59:42;;;;;;;50.80;30.67;;;77.60;2227.20;;;;;;5051350;28;20024;-70
2021/04/16 01:02:08;;;;;;;52.88;32.28;;;77.60;2227.20;;;;;;5051660;28;20499;-70
2021/04/16 01:04:34;;;;;;;58.40;32.42;;;77.60;2227.20;;;;;;5051404;28;20028;-70
2021/04/16 01:07:02;;;;;;;50.25;33.80;;;77.60;2227.20;;;;;;5051798;28;20025;-70
2021/04/16 01:09:29;;;;;;;54.17;32.40;;;77.60;2227.20;;;;;;5049731;28;20025;-70
2021/04/16 01:11:55;;;;;;;51.78;33.75;;;77.70;2227.20;;;;;;5051502;28;20028;-70
2021/04/16 01:14:21;;;;;;;54.42;33.28;;;77.60;2227.20;;;;;;5051535;28;20036;-70
2021/04/16 01:16:47;;;;;;;56.10;34.13;;;77.50;2227.20;;;;;;5051418;28;20060;-71
2021/04/16 01:19:25;;;;;;;52.83;34.05;;;77.50;2227.20;;;;;;5051662;28;20032;-71
2021/04/16 01:22:00;;;;;;;59.72;34.70;;;77.60;2227.20;;;;;;5051691;28;20017;-71
2021/04/16 01:24:31;;;;;;;62.67;35.00;;;77.50;2227.20;;;;;;5051742;28;20032;-71
2021/04/16 01:26:58;;;;;;;57.53;32.70;;;77.40;2227.20;;;;;;5052032;28;20098;-71
2021/04/16 01:29:25;;;;;;;55.42;31.30;;;77.40;2227.20;;;;;;5051598;28;20021;-71
2021/04/16 01:31:51;;;;;;;48.60;32.33;;;77.50;2227.20;;;;;;5051816;28;20025;-71
2021/04/16 01:34:20;;;;;;;48.58;32.53;;;77.50;2227.20;;;;;;5050328;28;20086;-71
2021/04/16 01:36:46;;;;;;;48.55;31.27;;;77.40;2227.20;;;;;;5051678;28;20456;-71
2021/04/16 01:39:12;;;;;;;53.83;31.30;;;77.30;2227.20;;;;;;5051491;28;20029;-71
2021/04/16 01:41:39;;;;;;;50.38;31.75;;;77.20;2227.20;;;;;;5051065;28;20025;-70
2021/04/16 01:44:09;;;;;;;59.15;35.17;;;77.10;2227.20;;;;;;5051327;28;20017;-70
2021/04/16 01:47:01;;;;;;;55.90;34.10;;;77.10;2227.20;;;;;;5050111;28;20075;-70
2021/04/16 01:49:37;;;;;;;57.08;32.95;;;77.00;2227.20;;;;;;5048614;28;20439;-71
2021/04/16 01:52:05;;;;;;;48.88;31.70;;;77.00;2227.20;;;;;;5050618;28;20487;-71
2021/04/16 01:54:34;;;;;;;48.08;31.20;;;77.00;2227.20;;;;;;5040819;28;20508;-71
2021/04/16 01:57:06;;;;;;;54.70;32.75;;;77.00;2227.20;;;;;;5047537;28;20029;-71
2021/04/16 01:59:35;;;;;;;49.75;32.90;;;77.00;2227.20;;;;;;5043151;28;20021;-70
2021/04/16 02:02:05;;;;;;;52.33;31.35;;;77.00;2227.20;;;;;;5041583;28;20021;-70
2021/04/16 02:04:31;;;;;;;57.90;34.17;;;76.90;2227.20;;;;;;5046286;28;20455;-70
2021/04/16 02:06:57;;;;;;;43.65;29.65;;;76.80;2227.20;;;;;;5045898;28;20476;-70
2021/04/16 02:09:26;;;;;;;51.08;33.53;;;76.80;2227.20;;;;;;5049517;28;20052;-70
2021/04/16 02:11:53;;;;;;;48.38;31.55;;;76.80;2227.20;;;;;;5049918;28;20021;-70
2021/04/16 02:14:22;;;;;;;45.63;30.50;;;76.80;2227.20;;;;;;5048870;28;20044;-70
2021/04/16 02:16:51;;;;;;;52.20;31.08;;;52.10;2227.20;;;;;;5048315;28;20065;-70
2021/04/16 02:19:18;;;;;;;43.70;27.48;;;52.00;2227.20;;;;;;5050069;28;20025;-70
2021/04/16 02:21:44;;;;;;;49.38;29.35;;;52.00;2227.20;;;;;;5053771;28;20515;-70
2021/04/16 02:24:10;;;;;;;34.22;25.08;;;52.00;2227.20;;;;;;5053706;28;20112;-70
2021/04/16 02:26:37;;;;;;;32.45;23.52;;;52.00;2227.20;;;;;;5053822;28;20100;-70
2021/04/16 02:29:16;;;;;;;34.63;23.05;;;52.00;2227.20;;;;;;5053734;28;20502;-70
2021/04/16 02:31:43;;;;;;;34.63;22.83;;;52.00;2227.20;;;;;;5052819;28;20064;-70
2021/04/16 02:34:10;;;;;;;32.53;22.90;;;52.00;2227.20;;;;;;5053763;28;20028;-69
2021/04/16 02:36:36;;;;;;;34.90;21.52;;;52.00;2227.20;;;;;;5054012;28;20567;-70
2021/04/16 02:39:04;;;;;;;33.60;23.90;;;52.00;2227.20;;;;;;5053886;28;20024;-70
2021/04/16 02:41:30;;;;;;;27.95;20.25;;;52.00;2227.20;;;;;;5054287;28;20025;-70
2021/04/16 02:43:57;;;;;;;30.92;20.35;;;52.00;2227.20;;;;;;5053584;28;20071;-69
2021/04/16 02:46:23;;;;;;;32.67;21.20;;;52.00;2227.20;;;;;;5053268;28;20017;-69
2021/04/16 02:48:48;;;;;;;32.45;21.48;;;52.00;2227.20;;;;;;5048720;28;20025;-69
2021/04/16 02:51:14;;;;;;;25.02;19.35;;;52.00;2227.20;;;;;;5053386;28;20025;-70
2021/04/16 02:53:40;;;;;;;30.50;20.17;;;52.00;2227.20;;;;;;5053246;28;20487;-70
2021/04/16 02:56:06;;;;;;;26.17;19.85;;;52.00;2227.20;;;;;;5053536;28;20388;-70
2021/04/16 02:58:32;;;;;;;25.73;19.15;;;52.00;2227.20;;;;;;5053311;28;20028;-69
2021/04/16 03:00:57;;;;;;;27.42;19.95;;;52.00;2227.20;;;;;;5052938;28;20032;-69
2021/04/16 03:03:23;;;;;;;34.10;20.92;;;52.00;2227.20;;;;;;5053457;28;20017;-70
2021/04/16 03:05:51;;;;;;;32.42;19.15;;;52.00;2227.20;;;;;;5053225;28;20444;-70
2021/04/16 03:08:17;;;;;;;28.08;20.08;;;51.90;2227.20;;;;;;5053364;28;20452;-70
2021/04/16 03:10:42;;;;;;;31.00;20.00;;;51.90;2227.20;;;;;;5052662;28;20049;-69
2021/04/16 03:13:08;;;;;;;31.27;19.70;;;51.90;2227.20;;;;;;5053002;28;20031;-70
2021/04/16 03:15:35;;;;;;;29.95;20.55;;;52.00;2227.20;;;;;;5052581;28;20100;-71
2021/04/16 03:18:01;;;;;;;27.92;19.38;;;51.90;2227.20;;;;;;5053111;28;20017;-69
2021/04/16 03:20:27;;;;;;;22.65;18.33;;;52.00;2227.20;;;;;;5052805;28;20427;-70
2021/04/16 03:22:52;;;;;;;25.08;18.55;;;52.00;2227.20;;;;;;5052480;28;20057;-70
2021/04/16 03:25:18;;;;;;;23.23;17.42;;;51.90;2227.20;;;;;;5052828;28;20017;-70
2021/04/16 03:27:44;;;;;;;25.88;17.85;;;51.90;2227.20;;;;;;5052658;28;20491;-70
2021/04/16 03:30:15;;;;;;;27.27;17.58;;;51.90;2227.20;;;;;;5052574;28;20021;-70
2021/04/16 03:32:40;;;;;;;22.33;15.10;;;51.90;2227.20;;;;;;5050511;28;20400;-70
2021/04/16 03:35:07;;;;;;;24.98;16.65;;;52.00;2227.20;;;;;;5052683;28;20016;-70
2021/04/16 03:37:33;;;;;;;23.35;15.65;;;52.00;2227.20;;;;;;5052515;28;20063;-70
2021/04/16 03:39:59;;;;;;;23.23;16.05;;;52.00;2227.20;;;;;;5052155;28;20017;-70
2021/04/16 03:42:24;;;;;;;25.23;16.15;;;52.00;2227.20;;;;;;5052146;28;20044;-70
2021/04/16 03:44:50;;;;;;;24.92;16.33;;;52.00;2227.20;;;;;;5047277;28;20031;-70
2021/04/16 03:47:17;;;;;;;22.77;16.42;;;52.00;2227.20;;;;;;5052415;28;20025;-70
2021/04/16 03:49:44;;;;;;;26.40;16.42;;;52.00;2227.20;;;;;;5052461;28;20029;-70
2021/04/16 03:52:10;;;;;;;20.60;16.25;;;52.00;2227.20;;;;;;5050403;28;20447;-70
2021/04/16 03:54:36;;;;;;;21.13;16.00;;;52.00;2227.20;;;;;;5052168;28;20049;-70
2021/04/16 03:57:03;;;;;;;17.98;14.32;;;51.90;2227.20;;;;;;5052589;28;20029;-69
2021/04/16 03:59:28;;;;;;;24.10;15.98;;;52.00;2227.20;;;;;;5051726;28;20025;-69
2021/04/16 04:01:54;;;;;;;17.10;14.18;;;52.00;2227.20;;;;;;5051692;28;20446;-69
2021/04/16 04:04:21;;;;;;;29.85;15.38;;;52.00;2227.20;;;;;;5051914;28;20017;-70
2021/04/16 04:06:48;;;;;;;18.65;14.30;;;52.10;2227.20;;;;;;5051634;28;20028;-70
2021/04/16 04:09:14;;;;;;;25.77;15.95;;;52.10;2227.20;;;;;;5048841;28;20029;-69
2021/04/16 04:11:40;;;;;;;26.60;19.15;;;52.00;2227.20;;;;;;5051806;28;20021;-70
2021/04/16 04:14:06;;;;;;;35.50;23.00;;;52.00;2227.20;;;;;;5050638;28;20036;-70
2021/04/16 04:16:52;;;;;;;63.97;38.42;;;52.00;2227.20;;;;;;5050271;28;20033;-69
2021/04/16 04:19:19;;;;;;;83.15;42.85;;;52.10;2227.20;;;;;;5051195;28;20114;-69
2021/04/16 04:21:47;;;;;;;65.68;34.70;;;76.80;2227.20;;;;;;5051311;28;20120;-69
2021/04/16 04:24:13;;;;;;;41.70;24.58;;;76.80;2227.20;;;;;;5050763;28;20029;-70
2021/04/16 04:26:39;;;;;;;44.85;24.42;;;76.80;2227.20;;;;;;5051895;28;20025;-69
2021/04/16 04:29:05;;;;;;;45.70;26.75;;;76.90;2227.20;;;;;;5051015;28;20094;-70
2021/04/16 04:31:31;;;;;;;46.58;27.95;;;76.90;2227.20;;;;;;5049411;28;20023;-70
2021/04/16 04:33:56;;;;;;;48.58;27.23;;;76.90;2227.20;;;;;;5050502;28;20025;-69
2021/04/16 04:36:22;;;;;;;46.47;28.42;;;77.00;2227.20;;;;;;5052306;28;20032;-69
2021/04/16 04:38:53;;;;;;;41.83;25.05;;;77.10;2227.20;;;;;;5050996;28;20021;-69
2021/04/16 04:41:19;;;;;;;33.38;20.65;;;77.00;2227.20;;;;;;5050742;28;20021;-70
2021/04/16 04:43:46;;;;;;;33.17;22.08;;;77.10;2227.20;;;;;;5050982;28;20372;-69
2021/04/16 04:46:11;;;;;;;34.17;22.10;;;77.20;2227.20;;;;;;5050844;28;20013;-69
2021/04/16 04:48:37;;;;;;;33.55;19.40;;;77.20;2227.20;;;;;;5051251;28;20423;-70
2021/04/16 04:51:04;;;;;;;31.88;23.10;;;77.30;2227.20;;;;;;5051392;28;20104;-70
2021/04/16 04:53:29;;;;;;;34.45;20.02;;;77.30;2227.20;;;;;;5050627;28;20061;-70
2021/04/16 04:55:55;;;;;;;41.38;23.75;;;77.40;2227.20;;;;;;5051332;28;20087;-70
2021/04/16 04:58:21;;;;;;;26.27;17.80;;;77.40;2227.20;;;;;;5051123;28;20531;-69
2021/04/16 05:00:47;;;;;;;27.83;19.15;;;77.60;2227.20;;;;;;5050971;28;20064;-69
2021/04/16 05:03:12;;;;;;;29.85;19.45;;;77.60;2227.20;;;;;;5051093;28;20100;-70
2021/04/16 05:05:38;;;;;;;24.25;16.95;;;77.60;2227.20;;;;;;5050986;28;20028;-69
2021/04/16 05:08:04;;;;;;;31.70;19.92;;;77.70;2227.20;;;;;;5050875;28;20025;-69
2021/04/16 05:10:30;;;;;;;42.35;24.23;;;77.70;2227.20;;;;;;5051108;28;20021;-69
2021/04/16 05:12:56;;;;;;;43.85;26.98;;;77.70;2227.20;;;;;;5049879;28;20039;-69
2021/04/16 05:15:22;;;;;;;37.13;22.10;;;77.70;2227.20;;;;;;5050398;28;20104;-70
2021/04/16 05:17:48;;;;;;;33.95;21.00;;;102.40;2227.20;;;;;;5051154;28;20032;-70
2021/04/16 05:20:14;;;;;;;34.50;20.95;;;102.40;2227.20;;;;;;5051056;28;20037;-70
2021/04/16 05:22:40;;;;;;;31.25;21.42;;;102.40;2227.20;;;;;;5050790;28;20017;-70
2021/04/16 05:25:07;;;;;;;31.80;21.52;;;102.40;2227.20;;;;;;5051161;28;20062;-70
2021/04/16 05:27:33;;;;;;;26.23;17.13;;;102.40;2227.20;;;;;;5050991;28;20028;-70
2021/04/16 05:29:59;;;;;;;30.15;20.65;;;102.50;2227.20;;;;;;5040770;28;20037;-70
2021/04/16 05:32:25;;;;;;;28.45;18.15;;;102.50;2227.20;;;;;;5041810;28;20037;-70
2021/04/16 05:34:50;;;;;;;24.40;15.63;;;102.60;2227.20;;;;;;5047815;28;20033;-70
2021/04/16 05:37:16;;;;;;;31.13;17.98;;;102.70;2227.20;;;;;;5045474;28;20021;-70
2021/04/16 05:39:43;;;;;;;26.67;18.92;;;102.80;2227.20;;;;;;5045686;28;20512;-70
2021/04/16 05:42:08;;;;;;;28.27;16.38;;;102.90;2227.20;;;;;;5054977;28;20024;-71
2021/04/16 05:44:34;;;;;;;25.17;17.45;;;103.00;2227.20;;;;;;5045218;28;20017;-70
2021/04/16 05:47:00;;;;;;;26.60;18.05;;;103.20;2201.60;;;;;;5047339;28;20040;-70
2021/04/16 05:49:26;;;;;;;27.42;17.73;;;103.30;2201.60;;;;;;5042329;28;20083;-70
2021/04/16 05:51:53;;;;;;;26.40;18.67;;;128.00;2201.60;;;;;;5050405;28;20029;-70
2021/04/16 05:54:19;;;;;;;27.15;19.67;;;128.10;2176.00;;;;;;5054694;28;20495;-71
2021/04/16 05:56:45;;;;;;;24.55;16.40;;;128.20;2201.60;;;;;;5054105;28;20029;-71
2021/04/16 05:59:11;;;;;;;24.88;16.48;;;128.30;2176.00;;;;;;5059109;28;20769;-71
2021/04/16 06:01:37;;;;;;;28.25;17.10;;;128.40;2176.00;;;;;;5061658;28;20337;-73
2021/04/16 06:04:03;;;;;;;21.20;15.50;;;128.50;2150.40;;;;;;5044744;28;20071;-73
2021/04/16 06:06:29;;;;;;;21.50;14.20;;;128.70;2150.40;;;;;;5048273;28;20021;-73
2021/04/16 06:08:55;;;;;;;21.42;15.23;;;128.70;2176.00;;;;;;5052061;28;20941;-73
2021/04/16 06:11:22;;;;;;;19.40;15.98;;;128.90;2124.80;;;;;;5051043;28;20036;-73
2021/04/16 06:13:48;;;;;;;23.85;17.48;;;153.60;2150.40;;;;;;5070239;28;20025;-73
2021/04/16 06:16:13;;;;;;;24.67;15.48;;;154.00;2124.80;;;;;;5050136;28;20187;-71
2021/04/16 06:18:39;;;;;;;17.60;14.27;;;154.10;2099.20;;;;;;5053375;28;20076;-72
2021/04/16 06:21:06;;;;;;;18.98;15.25;;;154.20;2124.80;;;;;;5046551;28;20094;-72
2021/04/16 06:23:32;;;;;;;19.52;15.55;;;154.20;2099.20;;;;;;5059574;28;20028;-72
2021/04/16 06:25:58;;;;;;;19.73;14.52;;;154.50;2099.20;;;;;;5050845;28;20086;-71
2021/04/16 06:28:24;;;;;;;26.05;14.15;;;154.50;2099.20;;;;;;5050917;28;20502;-71
2021/04/16 06:30:50;;;;;;;20.85;15.55;;;179.40;2099.20;;;;;;5047262;28;20029;-71
2021/04/16 06:33:25;;;;;;;19.05;13.52;;;179.60;2073.60;;;;;;5062874;28;20041;-71
2021/04/16 06:35:56;;;;;;;16.65;13.63;;;179.70;2048.00;;;;;;5050206;28;20037;-71
2021/04/16 06:38:25;;;;;;;16.60;13.38;;;179.70;2048.00;;;;;;5042120;28;20033;-70
2021/04/16 06:40:53;;;;;;;16.02;13.50;;;179.70;2048.00;;;;;;5050599;28;20075;-70
2021/04/16 06:43:28;;;;;;;16.75;13.02;;;179.90;1996.80;;;;;;5035331;28;20045;-70
2021/04/16 06:45:59;;;;;;;14.90;12.45;;;180.10;1971.20;;;;;;5046703;28;20087;-71
2021/04/16 06:48:25;;;;;;;15.10;13.15;;;205.00;1971.20;;;;;;5046132;28;20388;-71
2021/04/16 06:50:58;;;;;;;16.80;13.80;;;205.10;1945.60;;;;;;5052352;28;20503;-71
2021/04/16 06:53:44;;;;;;;16.13;13.05;;;205.20;1971.20;;;;;;5042279;28;20090;-71
2021/04/16 06:56:17;;;;;;;19.00;14.60;;;205.30;1920.00;;;;;;5062935;28;20737;-71
2021/04/16 06:58:52;;;;;;;17.52;14.38;;;205.70;1894.40;;;;;;5048427;28;20035;-70
2021/04/16 07:01:32;;;;;;;16.15;13.38;;;205.60;1868.80;;;;;;5042096;28;20623;-71
2021/04/16 07:04:35;;;;;;;15.98;12.38;;;205.60;1868.80;;;;;;5041261;28;20021;-72
2021/04/16 07:07:21;;;;;;;15.00;12.25;;;230.40;1868.80;;;;;;5045819;28;20021;-71
2021/04/16 07:09:50;;;;;;;15.63;12.88;;;230.40;1843.20;;;;;;5044703;28;20029;-72
2021/04/16 07:12:20;;;;;;;19.80;14.02;;;230.60;1843.20;;;;;;5046969;28;20435;-72
2021/04/16 07:14:57;;;;;;;17.08;12.93;;;230.70;1817.60;;;;;;5044864;28;20108;-71
2021/04/16 07:17:27;;;;;;;14.90;13.30;;;231.10;1792.00;;;;;;5045973;28;20025;-72
2021/04/16 07:19:53;;;;;;;15.52;12.77;;;231.20;1766.40;;;;;;5041687;28;20126;-72
2021/04/16 07:22:25;;;;;;;15.68;12.85;;;231.30;1766.40;;;;;;5043395;28;20040;-71
2021/04/16 07:24:53;;;;;;;13.68;11.60;;;231.30;1792.00;;;;;;5047756;28;20218;-71
2021/04/16 07:27:40;;;;;;;14.68;11.80;;;256.30;1740.80;;;;;;5046815;28;20102;-71
2021/04/16 07:30:08;;;;;;;16.33;11.68;;;256.50;1689.60;;;;;;5043108;28;20014;-72
2021/04/16 07:32:40;;;;;;;13.25;11.43;;;256.60;1638.40;;;;;;5039493;28;20021;-73
2021/04/16 07:35:31;;;;;;;15.85;12.23;;;256.40;1689.60;;;;;;5040950;28;20021;-74
2021/04/16 07:38:22;;;;;;;17.50;13.05;;;256.20;1715.20;;;;;;5042253;28;20025;-73
2021/04/16 07:40:48;;;;;;;15.50;12.20;;;256.50;1689.60;;;;;;5047697;28;20031;-73
2021/04/16 07:43:44;;;;;;;16.75;11.98;;;256.50;1664.00;;;;;;5043743;28;20392;-74
2021/04/16 07:46:25;;;;;;;18.33;13.30;;;256.30;1664.00;;;;;;5042025;28;20088;-73
2021/04/16 07:48:50;;;;;;;13.00;10.60;;;256.10;1715.20;;;;;;5061784;28;20029;-72
2021/04/16 07:51:31;;;;;;;13.38;11.70;;;256.00;1689.60;;;;;;5042071;28;20021;-72
2021/04/16 07:54:13;;;;;;;13.40;11.13;;;256.00;1715.20;;;;;;5047508;28;20040;-71
2021/04/16 07:56:40;;;;;;;13.32;10.38;;;256.20;1664.00;;;;;;5038427;28;20470;-72
2021/04/16 07:59:14;;;;;;;14.43;11.70;;;256.00;1664.00;;;;;;5042506;28;20794;-72
2021/04/16 08:01:51;;;;;;;11.73;10.40;;;256.30;1664.00;;;;;;5045465;28;20104;-71
2021/04/16 08:04:34;;;;;;;15.18;11.50;;;256.10;1689.60;;;;;;5042385;28;20075;-72
2021/04/16 08:07:19;;;;;;;20.27;11.95;;;231.30;1715.20;;;;;;5046696;28;20060;-72
2021/04/16 08:09:46;;;;;;;10.52;9.43;;;256.40;1664.00;;;;;;5043816;28;20053;-72
2021/04/16 08:12:20;;;;;;;14.13;11.00;;;256.70;1587.20;;;;;;5028273;28;20369;-73
2021/04/16 08:14:46;;;;;;;15.55;11.52;;;256.80;1612.80;;;;;;5043228;28;20029;-73
2021/04/16 08:17:30;;;;;;;21.60;13.35;;;256.60;1638.40;;;;;;5046897;28;20038;-73
2021/04/16 08:20:30;;;;;;;13.18;10.13;;;256.30;1587.20;;;;;;5051431;28;20025;-73
2021/04/16 08:22:57;;;;;;;13.23;10.88;;;281.90;1587.20;;;;;;5042317;28;20037;-73
2021/04/16 08:25:50;;;;;;;12.32;10.43;;;282.20;1510.40;;;;;;5043694;28;20029;-72
2021/04/16 08:28:30;;;;;;;13.18;10.15;;;282.10;1561.60;;;;;;5003862;28;20073;-73
2021/04/16 08:31:20;;;;;;;10.90;9.02;;;307.20;1536.00;;;;;;4988264;28;20034;-73
2021/04/16 08:34:06;;;;;;;12.43;9.30;;;281.90;1510.40;;;;;;4998734;28;20042;-73
2021/04/16 08:36:38;;;;;;;12.32;10.02;;;256.70;1536.00;;;;;;4988065;28;20042;-72
2021/04/16 08:39:33;;;;;;;13.25;11.00;;;281.60;1587.20;;;;;;4998586;28;20527;-72
2021/04/16 08:42:38;;;;;;;11.98;9.52;;;281.70;1612.80;;;;;;5000538;28;20556;-73
2021/04/16 08:45:09;;;;;;;13.00;9.80;;;282.00;1484.80;;;;;;4937978;29;20512;-72
2021/04/16 08:47:59;;;;;;;17.23;12.55;;;282.30;1510.40;;;;;;4936104;29;20051;-72
2021/04/16 08:50:29;;;;;;;14.00;10.82;;;281.60;1587.20;;;;;;4940384;29;20044;-72
2021/04/16 08:52:58;;;;;;;11.25;9.02;;;281.70;1561.60;;;;;;4936943;29;20043;-72
2021/04/16 08:55:34;;;;;;;13.02;8.65;;;282.30;1484.80;;;;;;4936179;29;20043;-73
2021/04/16 08:58:06;;;;;;;14.75;9.43;;;307.30;1484.80;;;;;;4935224;29;20044;-72
2021/04/16 09:00:41;;;;;;;12.70;10.25;;;307.20;1484.80;;;;;;4940628;29;20039;-72
2021/04/16 09:03:37;;;;;;;13.75;10.73;;;282.40;1484.80;;;;;;4931365;29;20038;-72
2021/04/16 09:06:04;;;;;;;12.53;10.37;;;281.60;1536.00;;;;;;4949013;28;20047;-72
2021/04/16 09:08:45;;;;;;;13.75;10.40;;;281.60;1561.60;;;;;;4970589;28;20803;-72
2021/04/16 09:11:14;;;;;;;13.23;9.80;;;256.70;1536.00;;;;;;4969000;28;20023;-72
2021/04/16 09:13:40;;;;;;;11.25;8.23;;;256.30;1536.00;;;;;;4953389;28;20481;-72
2021/04/16 09:16:15;;;;;;;12.50;9.23;;;256.50;1510.40;;;;;;5014215;28;20148;-73
2021/04/16 09:18:41;;;;;;;15.63;9.05;;;282.00;1433.60;;;;;;5044474;28;20021;-72
2021/04/16 09:21:21;;;;;;;11.18;8.60;;;282.10;1459.20;;;;;;5050666;28;20468;-73
2021/04/16 09:23:47;;;;;;;11.93;10.43;;;281.90;1459.20;;;;;;5049412;28;20393;-73
2021/04/16 09:26:48;;;;;;;12.63;10.25;;;282.40;1433.60;;;;;;5054249;28;20029;-72
2021/04/16 09:29:29;;;;;;;19.48;12.73;;;307.20;1484.80;;;;;;5048195;28;20024;-73
2021/04/16 09:32:01;;;;;;;20.38;13.57;;;282.10;1510.40;;;;;;5055905;28;20040;-73
2021/04/16 09:34:40;;;;;;;15.35;12.88;;;282.00;1536.00;;;;;;5053319;28;20029;-73
2021/04/16 09:37:31;;;;;;;15.25;10.02;;;307.30;1459.20;;;;;;5051640;28;20037;-72
2021/04/16 09:40:05;;;;;;;16.40;11.68;;;308.10;1331.20;;;;;;5059247;28;20039;-72
2021/04/16 09:42:33;;;;;;;15.98;12.20;;;332.80;1356.80;;;;;;5063548;28;20033;-73
2021/04/16 09:45:00;;;;;;;13.23;10.18;;;333.30;1331.20;;;;;;5044697;28;20022;-74
2021/04/16 09:47:42;;;;;;;12.68;10.85;;;358.50;1280.00;;;;;;5047156;28;20025;-74
2021/04/16 09:50:22;;;;;;;11.07;9.85;;;358.80;1254.40;;;;;;5045376;28;20071;-72
2021/04/16 09:53:07;;;;;;;14.32;12.20;;;333.10;1331.20;;;;;;5065129;28;20018;-74
2021/04/16 09:55:48;;;;;;;12.93;11.45;;;333.20;1331.20;;;;;;5049504;28;20069;-73
2021/04/16 09:58:35;;;;;;;10.73;9.63;;;333.70;1305.60;;;;;;5048521;28;20034;-73
2021/04/16 10:01:05;;;;;;;12.77;9.38;;;358.80;1254.40;;;;;;5048138;28;20034;-74
2021/04/16 10:03:59;;;;;;;11.90;10.13;;;384.10;1152.00;;;;;;5045989;28;20375;-74
2021/04/16 10:06:32;;;;;;;12.85;10.30;;;358.60;1228.80;;;;;;5052856;28;20106;-74
2021/04/16 10:09:07;;;;;;;13.57;8.68;;;333.10;1305.60;;;;;;5062113;28;20399;-73
2021/04/16 10:11:33;;;;;;;14.13;9.25;;;308.10;1280.00;;;;;;5049703;28;20026;-73
2021/04/16 10:14:20;;;;;;;13.43;10.15;;;333.30;1254.40;;;;;;5044475;28;20025;-74
2021/04/16 10:16:51;;;;;;;13.77;9.57;;;333.70;1228.80;;;;;;5041522;28;20017;-74
2021/04/16 10:19:44;;;;;;;11.38;9.23;;;333.30;1254.40;;;;;;5057964;28;20025;-75
2021/04/16 10:22:13;;;;;;;11.75;10.15;;;332.80;1254.40;;;;;;5003789;28;20033;-75
2021/04/16 12:39:41;;;;;;;12.55;7.03;;;358.90;1100.80;;;;;;4980274;28;20599;-74
2021/04/16 12:42:08;;;;;;;7.90;7.00;;;333.70;1152.00;;;;;;4980842;28;20418;-74
2021/04/16 12:44:45;;;;;;;10.45;8.18;;;333.20;1203.20;;;;;;4985752;28;20109;-74
2021/04/16 12:47:12;;;;;;;;;;;333.20;1228.80;;;;;;4985305;28;20500;-74
2021/04/16 12:49:38;;;;;;;9.77;6.85;;;333.20;1203.20;;;;;;4984788;28;19984;-75
2021/04/16 12:52:06;;;;;;;8.98;7.05;;;359.10;1100.80;;;;;;4988882;28;20121;-75
2021/04/16 12:54:38;;;;;;;8.65;7.47;;;409.80;1024.00;;;;;;4987522;28;20074;-74
2021/04/16 12:57:07;;;;;;;10.65;8.82;;;384.60;1024.00;;;;;;5004780;28;20088;-75
2021/04/16 12:59:35;;;;;;;8.30;6.00;;;409.80;1024.00;;;;;;5048500;28;20537;-74
2021/04/16 13:02:02;;;;;;;9.13;7.10;;;409.80;1024.00;;;;;;5047754;28;20528;-74
2021/04/16 13:04:28;;;;;;;10.15;6.75;;;410.30;998.40;;;;;;5047502;28;20025;-74
2021/04/16 13:06:59;;;;;;;10.45;8.10;;;461.00;921.60;;;;;;5035781;28;20026;-74
2021/04/16 13:09:25;;;;;;;11.10;8.68;;;461.30;896.00;;;;;;5047727;28;20468;-75
2021/04/16 13:11:51;;;;;;;7.80;6.38;;;436.00;921.60;;;;;;5049342;28;20029;-75
2021/04/16 13:14:18;;;;;;;9.85;7.60;;;410.50;972.80;;;;;;5049565;28;20075;-75
2021/04/16 13:16:45;;;;;;;14.15;7.13;;;384.60;998.40;;;;;;5047971;28;20415;-74
2021/04/16 13:19:24;;;;;;;11.25;6.95;;;384.10;1049.60;;;;;;5049636;28;20025;-74
2021/04/16 13:21:56;;;;;;;8.15;6.85;;;384.00;1049.60;;;;;;5046336;28;20043;-75
2021/04/16 13:24:21;;;;;;;8.43;5.90;;;409.80;1024.00;;;;;;5049464;28;20033;-74
2021/04/16 13:26:47;;;;;;;7.65;6.70;;;384.20;1024.00;;;;;;5047964;28;20035;-75
2021/04/16 13:29:13;;;;;;;11.57;8.48;;;384.10;1049.60;;;;;;5049591;28;20384;-75
2021/04/16 13:31:39;;;;;;;7.93;6.97;;;384.20;1024.00;;;;;;5064615;28;20120;-74
2021/04/16 13:34:05;;;;;;;10.48;6.85;;;384.10;1024.00;;;;;;5048292;28;20120;-74
2021/04/16 13:36:33;;;;;;;11.30;7.13;;;358.80;1075.20;;;;;;5048285;28;20048;-75
2021/04/16 13:39:00;;;;;;;10.38;7.60;;;358.50;1126.40;;;;;;5046261;28;20396;-75
2021/04/16 13:41:26;;;;;;;9.07;7.68;;;333.40;1152.00;;;;;;5058360;28;20029;-74
2021/04/16 13:43:53;;;;;;;10.48;7.32;;;333.20;1203.20;;;;;;5035388;28;20112;-74
2021/04/16 13:46:26;;;;;;;11.00;7.95;;;332.90;1203.20;;;;;;5045334;28;20017;-75
2021/04/16 13:48:54;;;;;;;9.60;6.55;;;308.10;1228.80;;;;;;5049120;28;20052;-75
2021/04/16 13:51:22;;;;;;;12.13;8.77;;;332.80;1228.80;;;;;;5048022;28;20798;-75
2021/04/16 13:53:48;;;;;;;12.23;7.63;;;307.90;1228.80;;;;;;5047774;28;20423;-75
2021/04/16 13:56:14;;;;;;;9.02;6.22;;;307.80;1228.80;;;;;;5042551;28;20049;-75
2021/04/16 13:58:40;;;;;;;14.70;8.07;;;307.70;1203.20;;;;;;5061956;28;20078;-74
2021/04/16 14:01:08;;;;;;;11.07;6.75;;;307.70;1228.80;;;;;;5049021;28;20098;-74
2021/04/16 14:03:43;;;;;;;10.48;7.65;;;307.80;1203.20;;;;;;5048926;28;20508;-75
2021/04/16 14:06:22;;;;;;;14.00;9.55;;;307.90;1228.80;;;;;;5048492;28;20021;-75
2021/04/16 14:08:55;;;;;;;13.50;7.75;;;307.90;1228.80;;;;;;5059580;28;20124;-75
2021/04/16 14:11:22;;;;;;;12.63;8.05;;;332.80;1228.80;;;;;;5050228;28;20364;-74
2021/04/16 14:13:48;;;;;;;16.35;9.82;;;332.80;1228.80;;;;;;5052324;28;20079;-75
2021/04/16 14:16:35;;;;;;;11.32;8.32;;;332.80;1203.20;;;;;;5047694;28;20041;-75
2021/04/16 14:19:06;;;;;;;11.93;7.18;;;333.20;1177.60;;;;;;5052823;28;20032;-76
2021/04/16 14:21:38;;;;;;;9.30;5.82;;;358.80;1100.80;;;;;;5043179;28;20025;-74
2021/04/16 14:24:06;;;;;;;7.10;5.95;;;358.40;1100.80;;;;;;5041353;28;20458;-74
2021/04/16 14:26:32;;;;;;;9.68;6.38;;;333.50;1152.00;;;;;;5050985;28;20056;-75
2021/04/16 14:28:58;;;;;;;9.63;6.93;;;333.30;1152.00;;;;;;5062941;28;20057;-74
2021/04/16 14:31:23;;;;;;;10.30;6.15;;;333.10;1177.60;;;;;;5061416;28;20078;-75
2021/04/16 14:33:49;;;;;;;9.77;6.10;;;333.30;1177.60;;;;;;5052542;28;20029;-75
2021/04/16 14:36:15;;;;;;;9.40;6.03;;;333.70;1126.40;;;;;;5046581;28;20028;-74